createdAt,value
2022-10-08T00:00:53.806Z,73.51
2022-10-08T00:03:27.923Z,73.44
2022-10-08T00:05:58.619Z,73.11
2022-10-08T00:08:30.351Z,73.70
2022-10-08T00:11:01.723Z,73.41
2022-10-08T00:13:40.876Z,73.73
2022-10-08T00:16:12.653Z,73.62
2022-10-08T00:18:46.371Z,74.16
2022-10-08T00:21:18.742Z,73.57
2022-10-08T00:23:49.971Z,73.71
2022-10-08T00:26:24.393Z,73.45
2022-10-08T00:28:55.440Z,73.68
2022-10-08T00:31:28.853Z,73.53
2022-10-08T00:34:02.495Z,73.60
2022-10-08T00:36:34.466Z,73.75
2022-10-08T00:39:06.827Z,73.52
2022-10-08T00:41:40.439Z,73.23
2022-10-08T00:44:54.394Z,73.83
2022-10-08T00:47:41.131Z,73.68
2022-10-08T00:50:21.051Z,73.82
2022-10-08T00:52:53.686Z,73.23
2022-10-08T00:55:27.253Z,73.82
2022-10-08T00:58:02.129Z,74.03
2022-10-08T01:00:33.316Z,73.86
2022-10-08T01:03:03.861Z,73.46
2022-10-08T01:05:48.395Z,74.49
2022-10-08T01:08:29.829Z,74.40
2022-10-08T01:11:08.299Z,74.79
2022-10-08T01:13:49.882Z,75.13
2022-10-08T01:16:32.722Z,74.65
2022-10-08T01:19:12.796Z,75.29
2022-10-08T01:21:57.589Z,74.99
2022-10-08T01:24:58.076Z,75.24
2022-10-08T01:27:33.785Z,75.15
2022-10-08T01:30:08.087Z,75.01
2022-10-08T01:32:44.864Z,75.05
2022-10-08T01:35:21.595Z,75.52
2022-10-08T01:37:56.128Z,75.65
2022-10-08T01:40:30.449Z,75.72
2022-10-08T01:43:04.184Z,76.37
2022-10-08T01:45:39.053Z,74.94
2022-10-08T01:48:15.006Z,75.48
2022-10-08T01:50:56.380Z,75.67
2022-10-08T01:53:31.094Z,76.09
2022-10-08T01:56:03.433Z,76.04
2022-10-08T01:58:41.704Z,76.16
2022-10-08T02:01:16.696Z,76.47
2022-10-08T02:04:06.477Z,75.98
2022-10-08T02:06:38.842Z,76.63
2022-10-08T02:09:07.998Z,77.14
2022-10-08T02:11:37.198Z,76.43
2022-10-08T02:14:08.437Z,76.59
2022-10-08T02:16:44.187Z,77.09
2022-10-08T02:19:24.254Z,76.72
2022-10-08T02:21:57.257Z,76.94
2022-10-08T02:24:34.684Z,76.48
2022-10-08T02:27:09.502Z,76.76
2022-10-08T02:29:47.112Z,76.81
2022-10-08T02:32:24.600Z,76.57
2022-10-08T02:35:01.973Z,77.08
2022-10-08T02:37:37.631Z,77.17
2022-10-08T02:40:11.932Z,76.83
2022-10-08T02:42:47.946Z,76.69
2022-10-08T02:45:24.457Z,77.26
2022-10-08T02:48:02.834Z,77.52
2022-10-08T02:50:34.615Z,77.68
2022-10-08T02:53:04.500Z,77.14
2022-10-08T02:55:43.806Z,76.81
2022-10-08T02:58:14.864Z,76.58
2022-10-08T03:00:53.113Z,77.29
2022-10-08T03:03:31.451Z,77.59
2022-10-08T03:06:06.328Z,77.67
2022-10-08T03:08:41.148Z,77.24
2022-10-08T03:11:11.874Z,77.37
2022-10-08T03:13:46.265Z,77.76
2022-10-08T03:16:22.138Z,77.48
2022-10-08T03:18:52.490Z,77.62
2022-10-08T03:21:22.417Z,77.45
2022-10-08T03:23:51.531Z,77.41
2022-10-08T03:26:20.790Z,77.96
2022-10-08T03:28:49.992Z,77.54
2022-10-08T03:31:20.548Z,77.50
2022-10-08T03:33:51.817Z,78.19
2022-10-08T03:36:22.536Z,78.25
2022-10-08T03:38:52.650Z,77.58
2022-10-08T03:41:23.323Z,77.79
2022-10-08T03:43:52.777Z,78.06
2022-10-08T03:46:23.407Z,78.04
2022-10-08T03:48:52.977Z,78.12
2022-10-08T03:51:23.763Z,77.44
2022-10-08T03:53:53.233Z,78.22
2022-10-08T03:56:25.120Z,77.98
2022-10-08T03:58:56.060Z,78.04
2022-10-08T04:01:28.081Z,77.95
2022-10-08T04:03:57.809Z,78.53
2022-10-08T04:06:27.024Z,78.58
2022-10-08T04:09:01.079Z,78.40
2022-10-08T04:11:31.965Z,78.63
2022-10-08T04:14:02.410Z,78.96
2022-10-08T04:16:33.037Z,78.70
2022-10-08T04:19:02.665Z,78.75
2022-10-08T04:21:32.698Z,78.75
2022-10-08T04:24:01.870Z,78.71
2022-10-08T04:26:31.051Z,78.83
2022-10-08T04:29:01.019Z,79.11
2022-10-08T04:31:30.219Z,78.98
2022-10-08T04:34:00.779Z,78.72
2022-10-08T04:36:29.977Z,79.50
2022-10-08T04:38:59.253Z,78.94
2022-10-08T04:41:28.985Z,79.45
2022-10-08T04:44:01.504Z,79.16
2022-10-08T04:46:30.812Z,79.06
2022-10-08T04:49:01.472Z,79.59
2022-10-08T04:51:30.851Z,79.05
2022-10-08T04:54:00.381Z,79.16
2022-10-08T04:56:32.515Z,78.95
2022-10-08T04:59:01.875Z,79.78
2022-10-08T05:01:32.300Z,79.46
2022-10-08T05:04:03.025Z,79.53
2022-10-08T05:06:33.918Z,79.75
2022-10-08T05:09:04.356Z,79.92
2022-10-08T05:11:34.508Z,79.84
2022-10-08T05:14:04.493Z,80.50
2022-10-08T05:16:34.063Z,80.50
2022-10-08T05:19:05.190Z,80.20
2022-10-08T05:21:35.022Z,80.44
2022-10-08T05:24:06.825Z,79.94
2022-10-08T05:26:58.600Z,80.19
2022-10-08T05:29:28.516Z,80.52
2022-10-08T05:31:57.841Z,80.06
2022-10-08T05:34:28.743Z,80.06
2022-10-08T05:36:57.963Z,80.28
2022-10-08T05:39:27.336Z,80.30
2022-10-08T05:41:56.461Z,80.22
2022-10-08T05:44:25.681Z,79.69
2022-10-08T05:46:54.895Z,80.03
2022-10-08T05:49:24.760Z,79.68
2022-10-08T05:51:55.283Z,79.56
2022-10-08T05:54:24.436Z,79.66
2022-10-08T05:56:53.672Z,79.46
2022-10-08T05:59:25.234Z,79.64
2022-10-08T06:01:54.396Z,79.91
2022-10-08T06:04:23.746Z,79.82
2022-10-08T06:06:54.369Z,80.13
2022-10-08T06:09:23.529Z,79.86
2022-10-08T06:11:52.678Z,79.99
2022-10-08T06:14:21.925Z,79.62
2022-10-08T06:16:51.084Z,79.65
2022-10-08T06:19:20.563Z,79.95
2022-10-08T06:24:21.759Z,80.07
2022-10-08T06:26:50.881Z,80.10
2022-10-08T06:29:22.456Z,80.09
2022-10-08T06:31:51.817Z,80.05
2022-10-08T06:34:21.189Z,79.75
2022-10-08T06:36:50.619Z,79.94
2022-10-08T06:39:21.478Z,80.31
2022-10-08T06:41:50.719Z,79.84
2022-10-08T06:44:20.230Z,79.52
2022-10-08T06:46:49.403Z,79.73
2022-10-08T06:49:19.669Z,79.39
2022-10-08T06:51:48.808Z,79.48
2022-10-08T06:54:17.990Z,79.27
2022-10-08T06:56:48.550Z,78.86
2022-10-08T06:59:17.617Z,78.79
2022-10-08T07:01:46.889Z,78.56
2022-10-08T07:04:16.098Z,78.00
2022-10-08T07:06:45.232Z,78.22
2022-10-08T07:09:14.370Z,78.11
2022-10-08T07:11:43.503Z,78.42
2022-10-08T07:14:14.135Z,78.03
2022-10-08T07:16:43.261Z,77.98
2022-10-08T07:19:12.475Z,78.17
2022-10-08T07:21:41.709Z,77.71
2022-10-08T07:24:11.174Z,77.77
2022-10-08T07:26:40.344Z,78.30
2022-10-08T07:29:16.282Z,77.33
2022-10-08T07:31:45.519Z,77.09
2022-10-08T07:34:15.385Z,75.95
2022-10-08T07:36:44.708Z,76.30
2022-10-08T07:39:18.065Z,75.41
2022-10-08T07:41:47.818Z,75.76
2022-10-08T07:44:19.202Z,75.57
2022-10-08T07:46:50.215Z,76.03
2022-10-08T07:49:21.558Z,75.95
2022-10-08T07:51:50.761Z,76.26
2022-10-08T07:54:21.171Z,76.21
2022-10-08T07:56:50.481Z,76.74
2022-10-08T07:59:21.082Z,76.53
2022-10-08T08:01:50.286Z,76.72
2022-10-08T08:04:19.641Z,76.63
2022-10-08T08:06:49.359Z,76.16
2022-10-08T08:09:18.725Z,76.33
2022-10-08T08:11:49.254Z,76.10
2022-10-08T08:14:19.855Z,75.25
2022-10-08T08:16:50.426Z,76.07
2022-10-08T08:19:19.787Z,77.62
2022-10-08T08:21:48.948Z,78.54
2022-10-08T08:24:18.275Z,79.22
2022-10-08T08:26:47.448Z,77.55
2022-10-08T08:29:18.818Z,73.80
2022-10-08T08:31:51.175Z,71.09
2022-10-08T08:34:24.299Z,68.96
2022-10-08T08:36:54.947Z,65.84
2022-10-08T08:39:26.830Z,68.23
2022-10-08T08:42:23.050Z,67.12
2022-10-08T08:45:00.811Z,65.87
2022-10-08T08:47:37.619Z,63.56
2022-10-08T08:50:20.526Z,61.32
2022-10-08T08:52:49.946Z,55.21
2022-10-08T08:55:22.832Z,56.64
2022-10-08T08:57:58.517Z,53.88
2022-10-08T09:00:36.044Z,51.94
2022-10-08T09:03:21.322Z,56.13
2022-10-08T09:05:56.789Z,54.77
2022-10-08T09:08:31.293Z,52.51
2022-10-08T09:11:02.985Z,50.22
2022-10-08T09:13:36.912Z,50.60
2022-10-08T09:16:06.599Z,49.13
2022-10-08T09:18:38.388Z,48.98
2022-10-08T09:21:07.533Z,49.89
2022-10-08T09:23:36.699Z,47.87
2022-10-08T09:26:16.780Z,47.85
2022-10-08T09:28:49.458Z,47.25
2022-10-08T09:31:28.386Z,48.28
2022-10-08T09:34:17.036Z,47.26
2022-10-08T09:36:50.082Z,48.53
2022-10-08T09:39:22.580Z,49.41
2022-10-08T09:42:13.348Z,48.63
2022-10-08T09:44:45.172Z,49.54
2022-10-08T09:47:17.115Z,48.60
2022-10-08T09:50:02.907Z,49.25
2022-10-08T09:52:32.934Z,49.58
2022-10-08T09:55:05.260Z,49.97
2022-10-08T09:57:40.432Z,50.15
2022-10-08T10:00:27.699Z,51.01
2022-10-08T10:02:59.173Z,50.77
2022-10-08T10:05:33.481Z,50.69
2022-10-08T10:08:03.517Z,51.00
2022-10-08T10:10:37.795Z,49.93
2022-10-08T10:13:13.283Z,48.83
2022-10-08T10:15:47.870Z,48.09
2022-10-08T10:18:22.320Z,47.64
2022-10-08T10:20:58.681Z,46.30
2022-10-08T10:23:35.037Z,46.97
2022-10-08T10:26:12.730Z,45.77
2022-10-08T10:28:46.324Z,44.42
2022-10-08T10:31:21.117Z,43.96
2022-10-08T10:33:56.714Z,44.09
2022-10-08T10:36:32.503Z,43.39
2022-10-08T10:39:13.885Z,43.93
2022-10-08T10:41:49.693Z,44.38
2022-10-08T10:44:25.003Z,43.57
2022-10-08T10:46:58.177Z,42.84
2022-10-08T10:49:36.189Z,42.40
2022-10-08T10:52:33.645Z,41.27
2022-10-08T10:55:19.791Z,41.00
2022-10-08T10:58:21.036Z,39.98
2022-10-08T11:01:03.669Z,39.44
2022-10-08T11:03:39.435Z,39.26
2022-10-08T11:06:40.784Z,39.05
2022-10-08T11:09:19.521Z,39.83
2022-10-08T11:11:53.783Z,39.31
2022-10-08T11:14:48.084Z,38.80
2022-10-08T11:17:45.032Z,38.52
2022-10-08T11:20:39.630Z,38.28
2022-10-08T11:23:32.782Z,38.64
2022-10-08T11:26:21.838Z,37.32
2022-10-08T11:29:02.326Z,36.98
2022-10-08T11:31:41.838Z,37.02
2022-10-08T11:34:24.871Z,37.58
2022-10-08T11:37:17.488Z,36.21
2022-10-08T11:39:59.382Z,36.77
2022-10-08T11:42:42.947Z,35.90
2022-10-08T11:45:36.996Z,35.01
2022-10-08T11:48:30.711Z,35.43
2022-10-08T11:51:37.704Z,35.14
2022-10-08T11:54:17.041Z,34.98
2022-10-08T11:56:49.744Z,34.55
2022-10-08T11:59:37.202Z,34.71
2022-10-08T12:02:21.922Z,34.49
2022-10-08T12:04:53.177Z,35.28
2022-10-08T12:07:29.933Z,34.27
2022-10-08T12:10:31.189Z,34.45
2022-10-08T12:13:28.254Z,34.13
2022-10-08T12:16:05.215Z,34.17
2022-10-08T12:18:45.818Z,35.50
2022-10-08T12:21:50.154Z,36.53
2022-10-08T12:24:56.507Z,36.03
2022-10-08T12:27:40.089Z,35.85
2022-10-08T12:30:12.859Z,35.28
2022-10-08T12:32:59.093Z,35.31
2022-10-08T12:35:31.989Z,35.53
2022-10-08T12:38:36.658Z,35.87
2022-10-08T12:41:21.168Z,35.26
2022-10-08T12:44:00.741Z,35.45
2022-10-08T12:46:48.099Z,35.26
2022-10-08T12:49:30.619Z,35.49
2022-10-08T12:52:06.550Z,35.85
2022-10-08T12:54:36.141Z,36.03
2022-10-08T12:57:12.443Z,35.56
2022-10-08T12:59:43.057Z,35.67
2022-10-08T13:02:35.675Z,35.85
2022-10-08T13:05:07.586Z,35.85
2022-10-08T13:07:37.190Z,35.81
2022-10-08T13:10:21.329Z,33.93
2022-10-08T13:13:04.860Z,33.82
2022-10-08T13:15:35.995Z,33.89
2022-10-08T13:18:15.956Z,33.45
2022-10-08T13:20:59.194Z,33.88
2022-10-08T13:23:35.113Z,33.95
2022-10-08T13:26:05.041Z,35.04
2022-10-08T13:28:59.152Z,35.12
2022-10-08T13:31:25.062Z,35.33
2022-10-08T13:33:54.603Z,35.41
2022-10-08T13:36:25.332Z,35.18
2022-10-08T13:38:54.573Z,34.95
2022-10-08T13:41:25.297Z,34.48
2022-10-08T13:43:54.434Z,34.92
2022-10-08T13:46:23.594Z,35.26
2022-10-08T13:48:52.692Z,35.41
2022-10-08T13:51:21.883Z,35.07
2022-10-08T13:53:56.821Z,35.45
2022-10-08T13:56:26.413Z,36.02
2022-10-08T13:58:55.578Z,36.61
2022-10-08T14:01:24.758Z,37.36
2022-10-08T14:03:53.916Z,37.68
2022-10-08T14:06:23.979Z,38.19
2022-10-08T14:08:54.580Z,38.91
2022-10-08T14:11:23.732Z,38.31
2022-10-08T14:13:52.940Z,38.80
2022-10-08T14:16:22.064Z,38.37
2022-10-08T14:18:51.219Z,39.08
2022-10-08T14:21:20.377Z,38.24
2022-10-08T14:23:49.789Z,38.36
2022-10-08T14:26:20.363Z,38.34
2022-10-08T14:28:49.520Z,38.38
2022-10-08T14:31:18.871Z,38.03
2022-10-08T14:33:48.088Z,37.49
2022-10-08T14:36:19.907Z,37.66
2022-10-08T14:38:49.516Z,38.05
2022-10-08T14:41:20.081Z,38.36
2022-10-08T14:43:49.214Z,38.35
2022-10-08T14:46:18.587Z,38.45
2022-10-08T14:48:47.785Z,38.46
2022-10-08T14:51:17.027Z,38.06
2022-10-08T14:53:46.274Z,38.44
2022-10-08T14:56:15.382Z,38.40
2022-10-08T14:58:45.886Z,39.42
2022-10-08T15:01:15.032Z,39.88
2022-10-08T15:03:45.860Z,40.31
2022-10-08T15:06:15.182Z,40.72
2022-10-08T15:08:44.299Z,41.19
2022-10-08T15:11:13.693Z,42.27
2022-10-08T15:13:42.944Z,42.55
2022-10-08T15:16:15.293Z,43.17
2022-10-08T15:18:45.215Z,43.73
2022-10-08T15:21:14.486Z,43.97
2022-10-08T15:23:43.610Z,43.88
2022-10-08T15:26:16.529Z,44.04
2022-10-08T15:28:47.147Z,44.75
2022-10-08T15:31:20.146Z,45.28
2022-10-08T15:33:51.821Z,45.29
2022-10-08T15:36:23.611Z,45.68
2022-10-08T15:38:58.504Z,46.04
2022-10-08T15:41:29.679Z,46.30
2022-10-08T15:44:10.114Z,46.96
2022-10-08T15:46:40.723Z,46.75
2022-10-08T15:49:09.982Z,46.86
2022-10-08T15:51:39.118Z,46.94
2022-10-08T15:54:09.018Z,47.32
2022-10-08T15:56:38.221Z,47.31
2022-10-08T15:59:07.450Z,47.20
2022-10-08T16:01:37.018Z,47.73
2022-10-08T16:04:08.103Z,47.91
2022-10-08T16:06:38.161Z,48.14
2022-10-08T16:09:07.407Z,48.32
2022-10-08T16:11:36.801Z,47.93
2022-10-08T16:14:08.623Z,48.28
2022-10-08T16:16:38.755Z,48.51
2022-10-08T16:19:13.131Z,48.59
2022-10-08T16:21:42.360Z,48.64
2022-10-08T16:24:12.115Z,48.49
2022-10-08T16:26:42.760Z,48.64
2022-10-08T16:29:15.046Z,48.50
2022-10-08T16:31:46.232Z,48.26
2022-10-08T16:34:19.223Z,48.54
2022-10-08T16:36:49.189Z,48.79
2022-10-08T16:39:20.867Z,48.98
2022-10-08T16:41:50.821Z,49.29
2022-10-08T16:44:21.837Z,49.06
2022-10-08T16:46:53.071Z,49.66
2022-10-08T16:49:26.594Z,50.15
2022-10-08T16:51:59.144Z,50.34
2022-10-08T16:54:29.496Z,50.68
2022-10-08T16:56:59.210Z,50.77
2022-10-08T16:59:30.429Z,51.24
2022-10-08T17:02:01.083Z,51.26
2022-10-08T17:04:36.370Z,51.16
2022-10-08T17:07:05.752Z,51.77
2022-10-08T17:09:35.152Z,51.54
2022-10-08T17:12:04.439Z,51.88
2022-10-08T17:14:33.513Z,51.70
2022-10-08T17:17:02.881Z,52.08
2022-10-08T17:19:33.452Z,52.04
2022-10-08T17:22:02.869Z,52.22
2022-10-08T17:24:31.999Z,52.37
2022-10-08T17:27:01.132Z,52.93
2022-10-08T17:29:30.298Z,53.09
2022-10-08T17:32:02.806Z,52.56
2022-10-08T17:34:33.665Z,52.70
2022-10-08T17:37:02.790Z,52.85
2022-10-08T17:39:32.742Z,52.95
2022-10-08T17:42:06.288Z,53.01
2022-10-08T17:44:36.339Z,53.11
2022-10-08T17:47:06.420Z,53.08
2022-10-08T17:49:36.930Z,53.35
2022-10-08T17:52:06.239Z,53.41
2022-10-08T17:54:35.487Z,53.68
2022-10-08T17:57:04.801Z,54.00
2022-10-08T17:59:33.957Z,54.35
2022-10-08T18:02:03.572Z,54.69
2022-10-08T18:04:32.849Z,54.90
2022-10-08T18:07:03.799Z,54.90
2022-10-08T18:09:33.391Z,55.00
2022-10-08T18:12:02.642Z,55.17
2022-10-08T18:14:31.873Z,55.54
2022-10-08T18:17:01.063Z,55.83
2022-10-08T18:19:30.204Z,56.24
2022-10-08T18:21:59.358Z,56.62
2022-10-08T18:24:29.935Z,56.80
2022-10-08T18:26:59.563Z,57.33
2022-10-08T18:29:28.793Z,57.46
2022-10-08T18:31:57.959Z,57.63
2022-10-08T18:34:27.059Z,57.78
2022-10-08T18:36:56.619Z,57.71
2022-10-08T18:39:28.402Z,57.81
2022-10-08T18:41:59.468Z,57.25
2022-10-08T18:44:28.648Z,57.45
2022-10-08T18:47:03.035Z,57.63
2022-10-08T18:49:34.331Z,58.00
2022-10-08T18:52:03.523Z,57.73
2022-10-08T18:54:32.737Z,58.06
2022-10-08T18:57:03.323Z,58.15
2022-10-08T18:59:32.717Z,58.22
2022-10-08T19:02:02.454Z,58.19
2022-10-08T19:04:31.694Z,58.53
2022-10-08T19:07:00.872Z,58.67
2022-10-08T19:09:30.318Z,58.62
2022-10-08T19:12:00.978Z,58.27
2022-10-08T19:14:31.859Z,58.52
2022-10-08T19:17:01.501Z,58.68
2022-10-08T19:19:31.864Z,58.61
2022-10-08T19:22:01.810Z,58.95
2022-10-08T19:24:31.223Z,59.41
2022-10-08T19:27:00.403Z,59.31
2022-10-08T19:29:33.804Z,59.20
2022-10-08T19:32:03.225Z,58.71
2022-10-08T19:34:33.594Z,58.45
2022-10-08T19:37:02.799Z,58.81
2022-10-08T19:39:33.776Z,58.72
2022-10-08T19:42:03.089Z,58.45
2022-10-08T19:44:33.629Z,58.44
2022-10-08T19:47:04.129Z,58.40
2022-10-08T19:49:33.370Z,58.59
2022-10-08T19:52:02.565Z,58.69
2022-10-08T19:54:31.779Z,58.54
2022-10-08T19:57:00.943Z,58.40
2022-10-08T19:59:30.458Z,58.47
2022-10-08T20:02:01.178Z,58.40
2022-10-08T20:04:30.518Z,58.59
2022-10-08T20:07:02.476Z,58.67
2022-10-08T20:09:36.053Z,58.58
2022-10-08T20:12:05.624Z,58.75
2022-10-08T20:14:35.005Z,59.04
2022-10-08T20:17:05.809Z,59.01
2022-10-08T20:19:35.442Z,59.36
2022-10-08T20:22:07.466Z,59.19
2022-10-08T20:24:39.088Z,59.20
2022-10-08T20:27:08.428Z,59.72
2022-10-08T20:29:37.764Z,59.71
2022-10-08T20:32:08.448Z,59.34
2022-10-08T20:34:37.934Z,59.49
2022-10-08T20:37:07.305Z,59.39
2022-10-08T20:39:36.625Z,59.66
2022-10-08T20:42:06.108Z,59.70
2022-10-08T20:44:35.320Z,59.74
2022-10-08T20:47:04.638Z,60.08
2022-10-08T20:49:36.263Z,59.42
2022-10-08T20:52:05.553Z,59.34
2022-10-08T20:54:35.225Z,59.39
2022-10-08T20:57:04.776Z,59.02
2022-10-08T20:59:34.716Z,58.88
2022-10-08T21:02:05.694Z,58.75
2022-10-08T21:04:36.412Z,58.95
2022-10-08T21:07:05.664Z,58.52
2022-10-08T21:09:34.834Z,58.55
2022-10-08T21:12:04.708Z,57.94
2022-10-08T21:14:34.022Z,57.86
2022-10-08T21:17:03.262Z,57.99
2022-10-08T21:19:32.660Z,57.99
2022-10-08T21:22:03.255Z,57.40
2022-10-08T21:24:32.903Z,57.57
2022-10-08T21:27:01.980Z,57.57
2022-10-08T21:29:31.102Z,57.55
2022-10-08T21:32:00.335Z,57.54
2022-10-08T21:34:29.569Z,57.14
2022-10-08T21:36:58.819Z,57.19
2022-10-08T21:39:29.358Z,57.49
2022-10-08T21:41:58.769Z,57.48
2022-10-08T21:44:28.008Z,57.21
2022-10-08T21:46:57.341Z,57.36
2022-10-08T21:49:27.484Z,57.34
2022-10-08T21:51:57.697Z,56.94
2022-10-08T21:54:28.187Z,57.01
2022-10-08T21:56:57.628Z,56.79
2022-10-08T21:59:26.876Z,56.90
2022-10-08T22:01:57.674Z,56.89
2022-10-08T22:04:27.156Z,56.47
2022-10-08T22:06:59.841Z,56.00
2022-10-08T22:09:31.854Z,55.80
2022-10-08T22:12:02.647Z,56.24
2022-10-08T22:14:31.932Z,56.31
2022-10-08T22:17:01.091Z,56.30
2022-10-08T22:19:30.866Z,56.36
2022-10-08T22:22:00.073Z,56.23
2022-10-08T22:24:30.854Z,55.90
2022-10-08T22:26:59.982Z,56.18
2022-10-08T22:29:29.155Z,56.12
2022-10-08T22:31:58.407Z,56.36
2022-10-08T22:34:27.743Z,55.98
2022-10-08T22:36:56.934Z,55.87
2022-10-08T22:39:26.131Z,56.09
2022-10-08T22:41:56.615Z,55.95
2022-10-08T22:44:25.795Z,55.04
2022-10-08T22:46:54.896Z,55.11
2022-10-08T22:49:23.989Z,55.48
2022-10-08T22:51:53.147Z,55.36
2022-10-08T22:54:22.302Z,55.44
2022-10-08T22:56:51.580Z,55.42
2022-10-08T22:59:22.239Z,55.89
2022-10-08T23:01:51.506Z,55.94
2022-10-08T23:04:20.717Z,55.79
2022-10-08T23:06:50.206Z,55.93
2022-10-08T23:09:19.398Z,56.12
2022-10-08T23:11:48.547Z,55.99
2022-10-08T23:14:17.774Z,55.59
2022-10-08T23:16:49.835Z,55.68
2022-10-08T23:19:19.075Z,55.53
2022-10-08T23:21:48.243Z,55.78
2022-10-08T23:24:17.415Z,55.79
2022-10-08T23:26:46.662Z,55.82
2022-10-08T23:29:15.805Z,55.81
2022-10-08T23:31:45.346Z,55.90
2022-10-08T23:34:16.095Z,55.65
2022-10-08T23:36:46.683Z,55.53
2022-10-08T23:39:17.892Z,56.00
2022-10-08T23:41:47.156Z,55.96
2022-10-08T23:44:16.358Z,56.86
2022-10-08T23:46:45.822Z,56.51
2022-10-08T23:49:17.550Z,57.41
2022-10-08T23:51:46.694Z,57.45
2022-10-08T23:54:15.855Z,57.87
2022-10-08T23:56:44.971Z,58.25
2022-10-08T23:59:14.145Z,57.89
